sensor_id;sensor_type;location;lat;lon;timestamp;P1;durP1;ratioP1;P2;durP2;ratioP2
22711;SDS011;11523;50.390;8.072;2023-07-24T02:09:14;4.88;;;2.58;;
22711;SDS011;11523;50.390;8.072;2023-07-24T02:11:45;2.20;;;2.03;;
22711;SDS011;11523;50.390;8.072;2023-07-24T02:35:20;5.85;;;2.55;;
22711;SDS011;11523;50.390;8.072;2023-07-24T03:54:10;3.45;;;2.65;;
22711;SDS011;11523;50.390;8.072;2023-07-24T03:56:42;8.05;;;2.50;;
22711;SDS011;11523;50.390;8.072;2023-07-24T03:59:08;3.50;;;2.40;;
22711;SDS011;11523;50.390;8.072;2023-07-24T04:01:34;7.38;;;2.28;;
22711;SDS011;11523;50.390;8.072;2023-07-24T04:04:00;4.50;;;2.70;;
22711;SDS011;11523;50.390;8.072;2023-07-24T04:06:26;6.20;;;2.58;;
22711;SDS011;11523;50.390;8.072;2023-07-24T04:08:52;5.22;;;2.65;;
22711;SDS011;11523;50.390;8.072;2023-07-24T04:11:18;6.28;;;2.63;;
22711;SDS011;11523;50.390;8.072;2023-07-24T04:13:44;6.90;;;2.85;;
22711;SDS011;11523;50.390;8.072;2023-07-24T04:16:09;6.70;;;2.88;;
22711;SDS011;11523;50.390;8.072;2023-07-24T04:18:35;6.57;;;2.63;;
22711;SDS011;11523;50.390;8.072;2023-07-24T04:21:01;6.90;;;2.60;;
22711;SDS011;11523;50.390;8.072;2023-07-24T04:23:27;5.40;;;3.00;;
22711;SDS011;11523;50.390;8.072;2023-07-24T04:25:53;4.72;;;2.78;;
22711;SDS011;11523;50.390;8.072;2023-07-24T04:28:19;6.82;;;3.20;;
22711;SDS011;11523;50.390;8.072;2023-07-24T04:30:45;7.40;;;2.90;;
22711;SDS011;11523;50.390;8.072;2023-07-24T04:33:11;7.00;;;2.88;;
22711;SDS011;11523;50.390;8.072;2023-07-24T04:35:37;8.48;;;3.28;;
22711;SDS011;11523;50.390;8.072;2023-07-24T04:38:03;8.95;;;3.00;;
22711;SDS011;11523;50.390;8.072;2023-07-24T04:40:29;6.15;;;3.10;;
22711;SDS011;11523;50.390;8.072;2023-07-24T04:42:55;4.38;;;3.00;;
22711;SDS011;11523;50.390;8.072;2023-07-24T04:45:21;6.50;;;3.33;;
22711;SDS011;11523;50.390;8.072;2023-07-24T04:47:46;8.23;;;3.05;;
22711;SDS011;11523;50.390;8.072;2023-07-24T04:50:12;5.57;;;3.10;;
22711;SDS011;11523;50.390;8.072;2023-07-24T04:52:38;5.82;;;2.97;;
22711;SDS011;11523;50.390;8.072;2023-07-24T04:55:04;10.02;;;3.00;;
22711;SDS011;11523;50.390;8.072;2023-07-24T04:57:30;6.30;;;2.78;;
22711;SDS011;11523;50.390;8.072;2023-07-24T04:59:56;9.73;;;2.90;;
22711;SDS011;11523;50.390;8.072;2023-07-24T05:02:22;7.85;;;3.13;;
22711;SDS011;11523;50.390;8.072;2023-07-24T05:04:48;6.50;;;3.28;;
22711;SDS011;11523;50.390;8.072;2023-07-24T05:07:15;9.77;;;2.92;;
22711;SDS011;11523;50.390;8.072;2023-07-24T05:09:40;7.10;;;3.60;;
22711;SDS011;11523;50.390;8.072;2023-07-24T05:12:06;7.32;;;2.95;;
22711;SDS011;11523;50.390;8.072;2023-07-24T05:14:32;6.00;;;3.28;;
22711;SDS011;11523;50.390;8.072;2023-07-24T05:16:58;3.47;;;2.60;;
22711;SDS011;11523;50.390;8.072;2023-07-24T05:19:24;6.50;;;3.38;;
22711;SDS011;11523;50.390;8.072;2023-07-24T05:21:50;5.75;;;2.92;;
22711;SDS011;11523;50.390;8.072;2023-07-24T05:24:16;7.05;;;2.85;;
22711;SDS011;11523;50.390;8.072;2023-07-24T05:26:42;7.60;;;2.78;;
22711;SDS011;11523;50.390;8.072;2023-07-24T05:29:08;8.13;;;3.33;;
22711;SDS011;11523;50.390;8.072;2023-07-24T05:31:34;11.43;;;3.58;;
22711;SDS011;11523;50.390;8.072;2023-07-24T05:34:01;10.13;;;3.70;;
22711;SDS011;11523;50.390;8.072;2023-07-24T05:36:28;9.57;;;3.50;;
22711;SDS011;11523;50.390;8.072;2023-07-24T05:38:54;6.95;;;3.33;;
22711;SDS011;11523;50.390;8.072;2023-07-24T05:41:21;10.13;;;3.10;;
22711;SDS011;11523;50.390;8.072;2023-07-24T05:43:47;11.23;;;3.25;;
22711;SDS011;11523;50.390;8.072;2023-07-24T05:46:13;7.80;;;3.05;;
22711;SDS011;11523;50.390;8.072;2023-07-24T05:48:39;5.28;;;3.55;;
22711;SDS011;11523;50.390;8.072;2023-07-24T05:51:05;6.32;;;3.33;;
22711;SDS011;11523;50.390;8.072;2023-07-24T05:53:31;8.63;;;3.03;;
22711;SDS011;11523;50.390;8.072;2023-07-24T05:55:57;8.75;;;3.22;;
22711;SDS011;11523;50.390;8.072;2023-07-24T05:58:24;8.13;;;3.28;;
22711;SDS011;11523;50.390;8.072;2023-07-24T06:00:50;7.90;;;3.20;;
22711;SDS011;11523;50.390;8.072;2023-07-24T06:03:16;8.63;;;3.20;;
22711;SDS011;11523;50.390;8.072;2023-07-24T06:05:41;9.02;;;3.45;;
22711;SDS011;11523;50.390;8.072;2023-07-24T06:08:07;9.50;;;3.22;;
22711;SDS011;11523;50.390;8.072;2023-07-24T06:10:35;5.03;;;3.28;;
22711;SDS011;11523;50.390;8.072;2023-07-24T06:13:01;5.78;;;3.17;;
22711;SDS011;11523;50.390;8.072;2023-07-24T06:15:27;6.63;;;2.65;;
22711;SDS011;11523;50.390;8.072;2023-07-24T06:17:53;6.93;;;3.42;;
22711;SDS011;11523;50.390;8.072;2023-07-24T06:20:19;3.67;;;3.00;;
22711;SDS011;11523;50.390;8.072;2023-07-24T06:22:45;6.70;;;3.28;;
22711;SDS011;11523;50.390;8.072;2023-07-24T06:25:11;7.65;;;3.03;;
22711;SDS011;11523;50.390;8.072;2023-07-24T06:27:37;8.15;;;3.15;;
22711;SDS011;11523;50.390;8.072;2023-07-24T06:30:03;6.68;;;3.28;;
22711;SDS011;11523;50.390;8.072;2023-07-24T06:32:29;6.97;;;3.25;;
22711;SDS011;11523;50.390;8.072;2023-07-24T06:34:55;9.05;;;3.10;;
22711;SDS011;11523;50.390;8.072;2023-07-24T06:37:21;7.22;;;3.00;;
22711;SDS011;11523;50.390;8.072;2023-07-24T06:39:47;4.88;;;3.38;;
22711;SDS011;11523;50.390;8.072;2023-07-24T06:42:13;7.45;;;3.30;;
22711;SDS011;11523;50.390;8.072;2023-07-24T06:44:39;5.88;;;3.40;;
22711;SDS011;11523;50.390;8.072;2023-07-24T06:47:05;5.55;;;3.42;;
22711;SDS011;11523;50.390;8.072;2023-07-24T06:49:30;10.00;;;3.40;;
22711;SDS011;11523;50.390;8.072;2023-07-24T06:51:56;10.05;;;3.70;;
22711;SDS011;11523;50.390;8.072;2023-07-24T06:54:22;5.07;;;3.35;;
22711;SDS011;11523;50.390;8.072;2023-07-24T06:56:48;7.05;;;3.25;;
22711;SDS011;11523;50.390;8.072;2023-07-24T06:59:14;7.35;;;3.28;;
22711;SDS011;11523;50.390;8.072;2023-07-24T07:01:40;6.65;;;3.22;;
22711;SDS011;11523;50.390;8.072;2023-07-24T07:04:06;6.72;;;3.60;;
22711;SDS011;11523;50.390;8.072;2023-07-24T07:06:32;6.38;;;3.15;;
22711;SDS011;11523;50.390;8.072;2023-07-24T07:08:58;8.48;;;3.13;;
22711;SDS011;11523;50.390;8.072;2023-07-24T07:11:24;6.15;;;3.40;;
22711;SDS011;11523;50.390;8.072;2023-07-24T07:13:50;5.80;;;3.10;;
22711;SDS011;11523;50.390;8.072;2023-07-24T07:16:16;5.90;;;3.63;;
22711;SDS011;11523;50.390;8.072;2023-07-24T07:18:43;8.75;;;3.65;;
22711;SDS011;11523;50.390;8.072;2023-07-24T07:21:09;7.55;;;3.75;;
22711;SDS011;11523;50.390;8.072;2023-07-24T07:23:35;9.10;;;4.10;;
22711;SDS011;11523;50.390;8.072;2023-07-24T07:26:01;7.28;;;4.30;;
22711;SDS011;11523;50.390;8.072;2023-07-24T07:28:27;4.65;;;3.65;;
22711;SDS011;11523;50.390;8.072;2023-07-24T07:30:53;7.90;;;4.13;;
22711;SDS011;11523;50.390;8.072;2023-07-24T07:33:19;6.35;;;4.03;;
22711;SDS011;11523;50.390;8.072;2023-07-24T07:35:49;7.40;;;4.07;;
22711;SDS011;11523;50.390;8.072;2023-07-24T07:38:15;6.80;;;4.20;;
22711;SDS011;11523;50.390;8.072;2023-07-24T07:40:41;9.38;;;4.65;;
22711;SDS011;11523;50.390;8.072;2023-07-24T07:43:07;7.53;;;4.25;;
22711;SDS011;11523;50.390;8.072;2023-07-24T07:45:33;6.30;;;4.40;;
22711;SDS011;11523;50.390;8.072;2023-07-24T07:47:59;8.73;;;4.43;;
22711;SDS011;11523;50.390;8.072;2023-07-24T07:50:25;9.43;;;5.20;;
22711;SDS011;11523;50.390;8.072;2023-07-24T07:52:51;6.90;;;4.70;;
22711;SDS011;11523;50.390;8.072;2023-07-24T07:55:18;8.00;;;4.90;;
22711;SDS011;11523;50.390;8.072;2023-07-24T08:00:18;8.13;;;5.18;;
22711;SDS011;11523;50.390;8.072;2023-07-24T08:02:44;7.45;;;4.97;;
22711;SDS011;11523;50.390;8.072;2023-07-24T08:05:10;7.30;;;4.72;;
22711;SDS011;11523;50.390;8.072;2023-07-24T08:07:36;7.88;;;5.10;;
22711;SDS011;11523;50.390;8.072;2023-07-24T08:10:03;6.28;;;4.43;;
22711;SDS011;11523;50.390;8.072;2023-07-24T08:12:29;7.00;;;4.90;;
22711;SDS011;11523;50.390;8.072;2023-07-24T08:14:55;6.53;;;4.95;;
22711;SDS011;11523;50.390;8.072;2023-07-24T08:17:21;8.15;;;4.90;;
22711;SDS011;11523;50.390;8.072;2023-07-24T08:19:47;7.10;;;4.97;;
22711;SDS011;11523;50.390;8.072;2023-07-24T08:22:13;8.40;;;5.55;;
22711;SDS011;11523;50.390;8.072;2023-07-24T08:24:39;9.52;;;4.50;;
22711;SDS011;11523;50.390;8.072;2023-07-24T08:27:05;7.30;;;4.82;;
22711;SDS011;11523;50.390;8.072;2023-07-24T08:29:31;4.97;;;4.50;;
22711;SDS011;11523;50.390;8.072;2023-07-24T08:31:58;5.05;;;4.47;;
22711;SDS011;11523;50.390;8.072;2023-07-24T08:34:24;6.50;;;5.10;;
22711;SDS011;11523;50.390;8.072;2023-07-24T08:36:50;5.05;;;4.47;;
22711;SDS011;11523;50.390;8.072;2023-07-24T08:39:16;7.32;;;5.10;;
22711;SDS011;11523;50.390;8.072;2023-07-24T08:41:41;6.32;;;4.95;;
22711;SDS011;11523;50.390;8.072;2023-07-24T08:44:08;5.50;;;4.70;;
22711;SDS011;11523;50.390;8.072;2023-07-24T08:46:35;8.65;;;4.75;;
22711;SDS011;11523;50.390;8.072;2023-07-24T08:49:02;5.85;;;4.32;;
22711;SDS011;11523;50.390;8.072;2023-07-24T08:51:28;6.57;;;4.63;;
22711;SDS011;11523;50.390;8.072;2023-07-24T08:54:02;5.80;;;4.68;;
22711;SDS011;11523;50.390;8.072;2023-07-24T08:56:35;8.27;;;5.22;;
22711;SDS011;11523;50.390;8.072;2023-07-24T08:59:02;9.18;;;5.80;;
22711;SDS011;11523;50.390;8.072;2023-07-24T09:01:28;8.30;;;4.95;;
22711;SDS011;11523;50.390;8.072;2023-07-24T09:03:54;7.95;;;5.60;;
22711;SDS011;11523;50.390;8.072;2023-07-24T09:06:20;8.82;;;5.05;;
22711;SDS011;11523;50.390;8.072;2023-07-24T09:08:46;6.43;;;4.97;;
22711;SDS011;11523;50.390;8.072;2023-07-24T09:11:13;6.05;;;4.85;;
22711;SDS011;11523;50.390;8.072;2023-07-24T09:13:40;6.20;;;5.07;;
22711;SDS011;11523;50.390;8.072;2023-07-24T09:16:07;10.73;;;5.00;;
22711;SDS011;11523;50.390;8.072;2023-07-24T09:18:39;6.78;;;5.07;;
22711;SDS011;11523;50.390;8.072;2023-07-24T09:21:06;6.50;;;4.85;;
22711;SDS011;11523;50.390;8.072;2023-07-24T09:23:31;5.97;;;4.53;;
22711;SDS011;11523;50.390;8.072;2023-07-24T09:25:57;8.55;;;5.07;;
22711;SDS011;11523;50.390;8.072;2023-07-24T09:28:23;4.53;;;4.10;;
22711;SDS011;11523;50.390;8.072;2023-07-24T09:30:57;6.15;;;4.28;;
22711;SDS011;11523;50.390;8.072;2023-07-24T09:33:44;4.95;;;3.83;;
22711;SDS011;11523;50.390;8.072;2023-07-24T09:36:09;4.88;;;3.92;;
22711;SDS011;11523;50.390;8.072;2023-07-24T09:38:36;5.95;;;4.40;;
22711;SDS011;11523;50.390;8.072;2023-07-24T09:41:03;8.20;;;4.47;;
22711;SDS011;11523;50.390;8.072;2023-07-24T09:43:30;8.88;;;4.40;;
22711;SDS011;11523;50.390;8.072;2023-07-24T09:45:56;6.53;;;4.50;;
22711;SDS011;11523;50.390;8.072;2023-07-24T09:48:23;4.97;;;3.70;;
22711;SDS011;11523;50.390;8.072;2023-07-24T09:50:52;7.32;;;4.10;;
22711;SDS011;11523;50.390;8.072;2023-07-24T09:56:00;5.85;;;4.32;;
22711;SDS011;11523;50.390;8.072;2023-07-24T09:58:26;5.45;;;4.07;;
22711;SDS011;11523;50.390;8.072;2023-07-24T10:00:53;5.45;;;4.60;;
22711;SDS011;11523;50.390;8.072;2023-07-24T10:03:20;4.55;;;3.83;;
22711;SDS011;11523;50.390;8.072;2023-07-24T10:05:47;8.02;;;4.50;;
22711;SDS011;11523;50.390;8.072;2023-07-24T10:08:17;5.57;;;4.45;;
22711;SDS011;11523;50.390;8.072;2023-07-24T10:10:43;4.45;;;4.05;;
22711;SDS011;11523;50.390;8.072;2023-07-24T10:13:10;4.97;;;4.40;;
22711;SDS011;11523;50.390;8.072;2023-07-24T10:15:38;4.90;;;3.90;;
22711;SDS011;11523;50.390;8.072;2023-07-24T10:18:05;5.57;;;4.25;;
22711;SDS011;11523;50.390;8.072;2023-07-24T10:20:35;5.10;;;4.60;;
22711;SDS011;11523;50.390;8.072;2023-07-24T10:23:02;5.45;;;4.82;;
22711;SDS011;11523;50.390;8.072;2023-07-24T10:25:31;4.78;;;4.25;;
22711;SDS011;11523;50.390;8.072;2023-07-24T10:28:04;4.53;;;4.03;;
22711;SDS011;11523;50.390;8.072;2023-07-24T10:30:35;5.03;;;4.50;;
22711;SDS011;11523;50.390;8.072;2023-07-24T10:35:43;5.38;;;4.90;;
22711;SDS011;11523;50.390;8.072;2023-07-24T10:38:10;7.38;;;4.80;;
22711;SDS011;11523;50.390;8.072;2023-07-24T10:40:36;5.90;;;5.00;;
22711;SDS011;11523;50.390;8.072;2023-07-24T10:43:07;6.05;;;4.80;;
22711;SDS011;11523;50.390;8.072;2023-07-24T10:45:39;5.15;;;4.65;;
22711;SDS011;11523;50.390;8.072;2023-07-24T10:48:06;5.45;;;4.95;;
22711;SDS011;11523;50.390;8.072;2023-07-24T10:50:39;5.85;;;5.05;;
22711;SDS011;11523;50.390;8.072;2023-07-24T10:53:05;7.05;;;5.00;;
22711;SDS011;11523;50.390;8.072;2023-07-24T10:55:31;5.90;;;4.93;;
22711;SDS011;11523;50.390;8.072;2023-07-24T10:57:57;5.97;;;5.22;;
22711;SDS011;11523;50.390;8.072;2023-07-24T11:00:23;7.65;;;5.55;;
22711;SDS011;11523;50.390;8.072;2023-07-24T11:02:49;5.80;;;5.20;;
22711;SDS011;11523;50.390;8.072;2023-07-24T11:05:15;5.60;;;5.03;;
22711;SDS011;11523;50.390;8.072;2023-07-24T11:07:42;6.88;;;5.18;;
22711;SDS011;11523;50.390;8.072;2023-07-24T11:10:17;5.65;;;5.10;;
22711;SDS011;11523;50.390;8.072;2023-07-24T11:12:44;5.72;;;5.00;;
22711;SDS011;11523;50.390;8.072;2023-07-24T11:15:11;6.50;;;5.00;;
22711;SDS011;11523;50.390;8.072;2023-07-24T11:17:37;7.68;;;5.22;;
22711;SDS011;11523;50.390;8.072;2023-07-24T11:20:08;7.82;;;5.10;;
22711;SDS011;11523;50.390;8.072;2023-07-24T11:22:35;6.07;;;5.30;;
22711;SDS011;11523;50.390;8.072;2023-07-24T11:25:01;6.10;;;5.45;;
22711;SDS011;11523;50.390;8.072;2023-07-24T11:27:27;7.28;;;5.78;;
22711;SDS011;11523;50.390;8.072;2023-07-24T11:29:53;7.10;;;5.47;;
22711;SDS011;11523;50.390;8.072;2023-07-24T11:32:19;6.00;;;5.40;;
22711;SDS011;11523;50.390;8.072;2023-07-24T11:34:46;6.47;;;4.95;;
22711;SDS011;11523;50.390;8.072;2023-07-24T11:37:12;5.07;;;4.57;;
22711;SDS011;11523;50.390;8.072;2023-07-24T11:39:38;7.60;;;5.20;;
22711;SDS011;11523;50.390;8.072;2023-07-24T11:42:05;5.28;;;4.78;;
22711;SDS011;11523;50.390;8.072;2023-07-24T11:44:31;5.80;;;5.13;;
22711;SDS011;11523;50.390;8.072;2023-07-24T11:47:01;6.45;;;5.30;;
22711;SDS011;11523;50.390;8.072;2023-07-24T11:49:28;5.15;;;4.65;;
22711;SDS011;11523;50.390;8.072;2023-07-24T11:51:59;5.60;;;4.65;;
22711;SDS011;11523;50.390;8.072;2023-07-24T11:54:25;5.15;;;4.53;;
22711;SDS011;11523;50.390;8.072;2023-07-24T11:56:51;5.30;;;4.80;;
22711;SDS011;11523;50.390;8.072;2023-07-24T11:59:17;8.10;;;4.80;;
22711;SDS011;11523;50.390;8.072;2023-07-24T12:01:46;7.35;;;4.93;;
22711;SDS011;11523;50.390;8.072;2023-07-24T12:04:15;6.00;;;5.38;;
22711;SDS011;11523;50.390;8.072;2023-07-24T12:06:41;5.60;;;4.97;;
22711;SDS011;11523;50.390;8.072;2023-07-24T12:09:07;5.65;;;5.10;;
22711;SDS011;11523;50.390;8.072;2023-07-24T12:11:38;5.55;;;4.45;;
22711;SDS011;11523;50.390;8.072;2023-07-24T12:14:05;7.57;;;4.93;;
22711;SDS011;11523;50.390;8.072;2023-07-24T12:16:33;7.15;;;5.10;;
22711;SDS011;11523;50.390;8.072;2023-07-24T12:18:59;6.97;;;4.35;;
22711;SDS011;11523;50.390;8.072;2023-07-24T12:21:25;6.90;;;4.00;;
22711;SDS011;11523;50.390;8.072;2023-07-24T12:23:51;4.80;;;4.00;;
22711;SDS011;11523;50.390;8.072;2023-07-24T12:26:17;5.45;;;3.88;;
22711;SDS011;11523;50.390;8.072;2023-07-24T12:28:43;4.18;;;3.40;;
22711;SDS011;11523;50.390;8.072;2023-07-24T12:31:08;3.70;;;3.40;;
22711;SDS011;11523;50.390;8.072;2023-07-24T12:33:34;4.88;;;3.35;;
22711;SDS011;11523;50.390;8.072;2023-07-24T12:36:00;4.18;;;3.78;;
22711;SDS011;11523;50.390;8.072;2023-07-24T12:38:27;5.03;;;3.72;;
22711;SDS011;11523;50.390;8.072;2023-07-24T12:40:53;6.63;;;3.70;;
22711;SDS011;11523;50.390;8.072;2023-07-24T12:43:19;4.60;;;3.45;;
22711;SDS011;11523;50.390;8.072;2023-07-24T12:45:45;5.53;;;3.75;;
22711;SDS011;11523;50.390;8.072;2023-07-24T12:48:11;4.32;;;3.70;;
22711;SDS011;11523;50.390;8.072;2023-07-24T12:50:36;4.25;;;3.58;;
22711;SDS011;11523;50.390;8.072;2023-07-24T12:53:02;5.18;;;4.20;;
22711;SDS011;11523;50.390;8.072;2023-07-24T12:55:28;6.53;;;4.03;;
22711;SDS011;11523;50.390;8.072;2023-07-24T12:57:54;4.35;;;3.95;;
22711;SDS011;11523;50.390;8.072;2023-07-24T13:00:21;5.53;;;3.45;;
22711;SDS011;11523;50.390;8.072;2023-07-24T13:02:48;3.80;;;3.35;;
22711;SDS011;11523;50.390;8.072;2023-07-24T13:05:14;3.55;;;3.25;;
22711;SDS011;11523;50.390;8.072;2023-07-24T13:07:40;4.57;;;3.30;;
22711;SDS011;11523;50.390;8.072;2023-07-24T13:10:07;3.42;;;3.13;;
22711;SDS011;11523;50.390;8.072;2023-07-24T13:12:33;5.15;;;3.33;;
22711;SDS011;11523;50.390;8.072;2023-07-24T13:14:58;3.65;;;3.00;;
22711;SDS011;11523;50.390;8.072;2023-07-24T13:17:24;4.40;;;3.78;;
22711;SDS011;11523;50.390;8.072;2023-07-24T13:19:51;6.18;;;3.28;;
22711;SDS011;11523;50.390;8.072;2023-07-24T13:22:17;3.42;;;2.92;;
22711;SDS011;11523;50.390;8.072;2023-07-24T13:24:43;4.55;;;3.20;;
22711;SDS011;11523;50.390;8.072;2023-07-24T13:27:09;6.60;;;3.35;;
22711;SDS011;11523;50.390;8.072;2023-07-24T13:29:35;3.92;;;3.53;;
22711;SDS011;11523;50.390;8.072;2023-07-24T13:32:01;4.40;;;3.95;;
22711;SDS011;11523;50.390;8.072;2023-07-24T13:34:26;5.22;;;4.05;;
22711;SDS011;11523;50.390;8.072;2023-07-24T13:36:52;4.85;;;3.58;;
22711;SDS011;11523;50.390;8.072;2023-07-24T13:39:18;6.18;;;2.90;;
22711;SDS011;11523;50.390;8.072;2023-07-24T13:41:44;5.35;;;3.53;;
22711;SDS011;11523;50.390;8.072;2023-07-24T13:44:10;4.93;;;3.30;;
22711;SDS011;11523;50.390;8.072;2023-07-24T13:46:36;3.70;;;3.25;;
22711;SDS011;11523;50.390;8.072;2023-07-24T13:49:02;3.95;;;2.13;;
22711;SDS011;11523;50.390;8.072;2023-07-24T13:51:28;5.50;;;3.20;;
22711;SDS011;11523;50.390;8.072;2023-07-24T13:53:54;4.45;;;3.53;;
22711;SDS011;11523;50.390;8.072;2023-07-24T13:56:20;3.83;;;2.88;;
22711;SDS011;11523;50.390;8.072;2023-07-24T13:58:48;3.65;;;3.00;;
22711;SDS011;11523;50.390;8.072;2023-07-24T14:01:14;4.60;;;3.08;;
22711;SDS011;11523;50.390;8.072;2023-07-24T14:03:40;3.15;;;2.70;;
22711;SDS011;11523;50.390;8.072;2023-07-24T14:06:06;3.08;;;2.50;;
22711;SDS011;11523;50.390;8.072;2023-07-24T14:08:32;3.15;;;2.85;;
22711;SDS011;11523;50.390;8.072;2023-07-24T14:10:57;2.70;;;2.50;;
22711;SDS011;11523;50.390;8.072;2023-07-24T14:13:23;3.10;;;2.80;;
22711;SDS011;11523;50.390;8.072;2023-07-24T14:15:49;2.30;;;2.10;;
22711;SDS011;11523;50.390;8.072;2023-07-24T14:18:15;2.40;;;2.20;;
22711;SDS011;11523;50.390;8.072;2023-07-24T14:20:41;4.82;;;2.80;;
22711;SDS011;11523;50.390;8.072;2023-07-24T14:23:07;4.13;;;2.55;;
22711;SDS011;11523;50.390;8.072;2023-07-24T14:25:33;6.40;;;2.92;;
22711;SDS011;11523;50.390;8.072;2023-07-24T14:27:59;4.15;;;2.50;;
22711;SDS011;11523;50.390;8.072;2023-07-24T14:30:25;2.42;;;2.22;;
22711;SDS011;11523;50.390;8.072;2023-07-24T14:32:51;1.77;;;1.45;;
22711;SDS011;11523;50.390;8.072;2023-07-24T14:35:17;1.70;;;1.42;;
22711;SDS011;11523;50.390;8.072;2023-07-24T14:37:43;1.80;;;1.33;;
22711;SDS011;11523;50.390;8.072;2023-07-24T14:40:10;1.30;;;1.10;;
22711;SDS011;11523;50.390;8.072;2023-07-24T14:42:37;1.35;;;1.23;;
22711;SDS011;11523;50.390;8.072;2023-07-24T14:45:03;2.45;;;1.00;;
22711;SDS011;11523;50.390;8.072;2023-07-24T14:47:29;1.42;;;1.00;;
22711;SDS011;11523;50.390;8.072;2023-07-24T14:50:01;1.30;;;0.80;;
22711;SDS011;11523;50.390;8.072;2023-07-24T14:52:27;1.70;;;0.90;;
22711;SDS011;11523;50.390;8.072;2023-07-24T14:54:53;1.00;;;0.90;;
22711;SDS011;11523;50.390;8.072;2023-07-24T14:57:25;1.10;;;1.00;;
22711;SDS011;11523;50.390;8.072;2023-07-24T14:59:51;2.55;;;1.10;;
22711;SDS011;11523;50.390;8.072;2023-07-24T15:02:17;1.05;;;0.95;;
22711;SDS011;11523;50.390;8.072;2023-07-24T15:04:43;1.17;;;1.10;;
22711;SDS011;11523;50.390;8.072;2023-07-24T15:07:09;1.33;;;1.05;;
22711;SDS011;11523;50.390;8.072;2023-07-24T15:09:35;1.10;;;1.00;;
22711;SDS011;11523;50.390;8.072;2023-07-24T15:12:01;1.00;;;1.00;;
22711;SDS011;11523;50.390;8.072;2023-07-24T15:14:27;2.53;;;1.15;;
22711;SDS011;11523;50.390;8.072;2023-07-24T15:16:53;1.02;;;1.00;;
22711;SDS011;11523;50.390;8.072;2023-07-24T15:19:19;3.00;;;1.30;;
22711;SDS011;11523;50.390;8.072;2023-07-24T15:21:45;1.17;;;1.08;;
22711;SDS011;11523;50.390;8.072;2023-07-24T15:24:11;3.00;;;1.38;;
22711;SDS011;11523;50.390;8.072;2023-07-24T15:26:37;1.30;;;1.20;;
22711;SDS011;11523;50.390;8.072;2023-07-24T15:29:02;1.20;;;1.10;;
22711;SDS011;11523;50.390;8.072;2023-07-24T15:31:29;0.82;;;0.60;;
22711;SDS011;11523;50.390;8.072;2023-07-24T15:34:00;1.52;;;1.00;;
22711;SDS011;11523;50.390;8.072;2023-07-24T15:36:26;1.17;;;1.10;;
22711;SDS011;11523;50.390;8.072;2023-07-24T15:38:52;1.23;;;1.10;;
22711;SDS011;11523;50.390;8.072;2023-07-24T15:41:18;1.30;;;1.20;;
22711;SDS011;11523;50.390;8.072;2023-07-24T15:43:43;2.17;;;1.10;;
22711;SDS011;11523;50.390;8.072;2023-07-24T15:46:09;2.65;;;1.40;;
22711;SDS011;11523;50.390;8.072;2023-07-24T15:48:35;3.15;;;1.60;;
22711;SDS011;11523;50.390;8.072;2023-07-24T15:51:01;1.80;;;1.48;;
22711;SDS011;11523;50.390;8.072;2023-07-24T15:53:28;1.90;;;1.33;;
22711;SDS011;11523;50.390;8.072;2023-07-24T15:55:56;1.63;;;1.52;;
22711;SDS011;11523;50.390;8.072;2023-07-24T15:58:22;1.35;;;1.20;;
22711;SDS011;11523;50.390;8.072;2023-07-24T16:00:48;1.67;;;1.30;;
22711;SDS011;11523;50.390;8.072;2023-07-24T16:03:13;2.70;;;1.50;;
22711;SDS011;11523;50.390;8.072;2023-07-24T16:05:39;2.05;;;1.55;;
22711;SDS011;11523;50.390;8.072;2023-07-24T16:08:05;1.55;;;1.45;;
22711;SDS011;11523;50.390;8.072;2023-07-24T16:10:31;1.77;;;1.55;;
22711;SDS011;11523;50.390;8.072;2023-07-24T16:12:57;1.38;;;1.27;;
22711;SDS011;11523;50.390;8.072;2023-07-24T16:15:23;1.25;;;1.15;;
22711;SDS011;11523;50.390;8.072;2023-07-24T16:17:49;1.63;;;1.30;;
22711;SDS011;11523;50.390;8.072;2023-07-24T16:20:15;2.92;;;1.60;;
22711;SDS011;11523;50.390;8.072;2023-07-24T16:22:41;2.97;;;1.30;;
22711;SDS011;11523;50.390;8.072;2023-07-24T16:25:07;1.35;;;1.25;;
22711;SDS011;11523;50.390;8.072;2023-07-24T16:27:33;4.07;;;1.50;;
22711;SDS011;11523;50.390;8.072;2023-07-24T16:29:59;2.72;;;1.33;;
22711;SDS011;11523;50.390;8.072;2023-07-24T16:32:26;2.40;;;1.60;;
22711;SDS011;11523;50.390;8.072;2023-07-24T16:34:52;2.00;;;1.50;;
22711;SDS011;11523;50.390;8.072;2023-07-24T16:37:18;1.67;;;1.48;;
22711;SDS011;11523;50.390;8.072;2023-07-24T16:39:44;1.50;;;1.40;;
22711;SDS011;11523;50.390;8.072;2023-07-24T16:42:10;1.40;;;1.30;;
22711;SDS011;11523;50.390;8.072;2023-07-24T16:44:35;1.65;;;1.30;;
22711;SDS011;11523;50.390;8.072;2023-07-24T16:47:01;3.28;;;1.25;;
22711;SDS011;11523;50.390;8.072;2023-07-24T16:49:27;1.52;;;1.35;;
22711;SDS011;11523;50.390;8.072;2023-07-24T16:51:53;1.67;;;1.30;;
22711;SDS011;11523;50.390;8.072;2023-07-24T16:54:19;2.80;;;1.52;;
22711;SDS011;11523;50.390;8.072;2023-07-24T16:56:45;2.75;;;1.30;;
22711;SDS011;11523;50.390;8.072;2023-07-24T16:59:11;1.98;;;1.42;;
22711;SDS011;11523;50.390;8.072;2023-07-24T17:01:37;1.88;;;1.77;;
22711;SDS011;11523;50.390;8.072;2023-07-24T17:04:03;3.58;;;1.77;;
22711;SDS011;11523;50.390;8.072;2023-07-24T17:06:29;2.28;;;1.65;;
22711;SDS011;11523;50.390;8.072;2023-07-24T17:08:55;1.75;;;1.65;;
22711;SDS011;11523;50.390;8.072;2023-07-24T17:11:21;1.63;;;1.52;;
22711;SDS011;11523;50.390;8.072;2023-07-24T17:13:47;3.20;;;1.60;;
22711;SDS011;11523;50.390;8.072;2023-07-24T17:16:13;1.50;;;1.40;;
22711;SDS011;11523;50.390;8.072;2023-07-24T17:18:39;1.55;;;1.40;;
22711;SDS011;11523;50.390;8.072;2023-07-24T17:21:05;3.28;;;1.25;;
22711;SDS011;11523;50.390;8.072;2023-07-24T17:23:31;1.95;;;1.58;;
22711;SDS011;11523;50.390;8.072;2023-07-24T17:25:57;2.67;;;1.80;;
22711;SDS011;11523;50.390;8.072;2023-07-24T17:28:23;2.15;;;1.80;;
22711;SDS011;11523;50.390;8.072;2023-07-24T17:30:49;4.22;;;1.63;;
22711;SDS011;11523;50.390;8.072;2023-07-24T17:33:15;4.20;;;1.60;;
22711;SDS011;11523;50.390;8.072;2023-07-24T17:35:41;3.03;;;1.88;;
22711;SDS011;11523;50.390;8.072;2023-07-24T17:38:07;2.28;;;1.73;;
22711;SDS011;11523;50.390;8.072;2023-07-24T17:40:33;3.92;;;1.58;;
22711;SDS011;11523;50.390;8.072;2023-07-24T17:43:01;1.33;;;1.23;;
22711;SDS011;11523;50.390;8.072;2023-07-24T17:45:28;4.25;;;1.67;;
22711;SDS011;11523;50.390;8.072;2023-07-24T17:47:54;1.55;;;1.10;;
22711;SDS011;11523;50.390;8.072;2023-07-24T17:50:19;4.18;;;1.45;;
22711;SDS011;11523;50.390;8.072;2023-07-24T17:52:47;3.65;;;1.40;;
22711;SDS011;11523;50.390;8.072;2023-07-24T17:55:13;3.28;;;1.08;;
22711;SDS011;11523;50.390;8.072;2023-07-24T17:57:39;1.90;;;1.40;;
22711;SDS011;11523;50.390;8.072;2023-07-24T18:00:05;3.78;;;1.20;;
22711;SDS011;11523;50.390;8.072;2023-07-24T18:02:31;1.38;;;1.27;;
22711;SDS011;11523;50.390;8.072;2023-07-24T18:04:57;2.10;;;1.30;;
22711;SDS011;11523;50.390;8.072;2023-07-24T18:07:23;1.55;;;1.30;;
22711;SDS011;11523;50.390;8.072;2023-07-24T18:09:49;1.70;;;1.42;;
22711;SDS011;11523;50.390;8.072;2023-07-24T18:12:15;1.67;;;1.17;;
22711;SDS011;11523;50.390;8.072;2023-07-24T18:14:41;1.48;;;1.15;;
22711;SDS011;11523;50.390;8.072;2023-07-24T18:17:07;1.60;;;1.17;;
22711;SDS011;11523;50.390;8.072;2023-07-24T18:19:33;1.55;;;1.10;;
22711;SDS011;11523;50.390;8.072;2023-07-24T18:21:59;1.20;;;1.05;;
22711;SDS011;11523;50.390;8.072;2023-07-24T18:24:25;1.10;;;1.10;;
22711;SDS011;11523;50.390;8.072;2023-07-24T18:26:51;1.20;;;1.10;;
22711;SDS011;11523;50.390;8.072;2023-07-24T18:29:17;1.73;;;1.10;;
22711;SDS011;11523;50.390;8.072;2023-07-24T18:31:43;1.30;;;1.15;;
22711;SDS011;11523;50.390;8.072;2023-07-24T18:34:09;1.55;;;1.38;;
22711;SDS011;11523;50.390;8.072;2023-07-24T18:36:35;1.30;;;1.20;;